createdAt,value
2018-10-16T00:00:14.697Z,63.30
2018-10-16T00:02:43.607Z,63.50
2018-10-16T00:05:12.003Z,63.80
2018-10-16T00:07:40.572Z,64.20
2018-10-16T00:10:09.767Z,64.50
2018-10-16T00:12:38.225Z,64.70
2018-10-16T00:15:08.814Z,64.70
2018-10-16T00:17:37.192Z,64.70
2018-10-16T00:20:07.076Z,64.80
2018-10-16T00:22:35.489Z,65.50
2018-10-16T00:25:03.948Z,65.20
2018-10-16T00:27:32.608Z,65.40
2018-10-16T00:30:01.020Z,65.40
2018-10-16T00:32:29.460Z,65.40
2018-10-16T00:34:57.927Z,65.40
2018-10-16T00:37:26.320Z,65.30
2018-10-16T00:39:54.995Z,65.30
2018-10-16T00:42:23.387Z,65.30
2018-10-16T00:44:51.969Z,65.30
2018-10-16T00:47:20.875Z,65.30
2018-10-16T00:49:49.253Z,65.30
2018-10-16T00:52:17.894Z,65.30
2018-10-16T00:54:46.464Z,65.30
2018-10-16T00:57:14.940Z,65.20
2018-10-16T00:59:43.524Z,65.20
2018-10-16T01:02:11.945Z,65.20
2018-10-16T01:04:40.260Z,65.20
2018-10-16T01:07:09.342Z,65.20
2018-10-16T01:09:38.093Z,65.20
2018-10-16T01:12:06.915Z,65.10
2018-10-16T01:14:35.706Z,65.30
2018-10-16T01:17:06.388Z,65.70
2018-10-16T01:22:14.741Z,65.80
2018-10-16T01:24:43.176Z,66.10
2018-10-16T01:27:11.663Z,66.50
2018-10-16T01:29:40.117Z,66.30
2018-10-16T01:32:09.935Z,66.20
2018-10-16T01:34:38.320Z,66.10
2018-10-16T01:37:06.994Z,66.20
2018-10-16T01:39:35.332Z,65.90
2018-10-16T01:42:07.476Z,66.30
2018-10-16T01:44:36.093Z,66.40
2018-10-16T01:49:55.059Z,66.50
2018-10-16T01:52:23.422Z,67.00
2018-10-16T01:54:51.884Z,67.40
2018-10-16T01:57:20.255Z,67.30
2018-10-16T01:59:48.603Z,67.00
2018-10-16T02:02:17.190Z,66.80
2018-10-16T02:04:45.741Z,66.80
2018-10-16T02:07:14.345Z,67.00
2018-10-16T02:09:43.017Z,67.00
2018-10-16T02:12:12.304Z,66.90
2018-10-16T02:14:40.822Z,66.80
2018-10-16T02:17:09.401Z,66.90
2018-10-16T02:19:37.973Z,67.20
2018-10-16T02:22:06.526Z,67.60
2018-10-16T02:24:34.927Z,67.70
2018-10-16T02:27:03.348Z,67.70
2018-10-16T02:29:32.712Z,67.60
2018-10-16T02:32:01.094Z,67.80
2018-10-16T02:34:29.549Z,68.00
2018-10-16T02:36:57.952Z,68.30
2018-10-16T02:39:26.242Z,67.50
2018-10-16T02:41:54.731Z,67.50
2018-10-16T02:44:23.121Z,67.60
2018-10-16T02:46:51.668Z,67.60
2018-10-16T02:49:20.063Z,67.60
2018-10-16T02:51:48.497Z,67.60
2018-10-16T02:54:16.780Z,67.70
2018-10-16T02:56:45.467Z,67.80
2018-10-16T02:59:14.818Z,67.90
2018-10-16T03:01:43.165Z,68.90
2018-10-16T03:04:11.441Z,69.20
2018-10-16T03:06:40.194Z,68.50
2018-10-16T03:09:09.143Z,68.70
2018-10-16T03:11:38.055Z,68.80
2018-10-16T03:14:06.427Z,68.80
2018-10-16T03:16:35.056Z,68.90
2018-10-16T03:19:03.418Z,68.80
2018-10-16T03:21:31.822Z,68.70
2018-10-16T03:24:00.278Z,68.60
2018-10-16T03:26:28.593Z,68.50
2018-10-16T03:28:57.581Z,69.20
2018-10-16T03:31:26.410Z,68.20
2018-10-16T03:33:54.729Z,68.00
2018-10-16T03:36:23.154Z,67.80
2018-10-16T03:38:51.553Z,67.70
2018-10-16T03:41:19.829Z,67.50
2018-10-16T03:43:58.603Z,67.60
2018-10-16T03:46:28.310Z,67.70
2018-10-16T03:48:56.796Z,67.90
2018-10-16T03:51:25.166Z,68.30
2018-10-16T03:53:55.540Z,67.80
2018-10-16T03:56:24.691Z,67.80
2018-10-16T03:58:53.244Z,67.60
2018-10-16T04:01:22.326Z,67.70
2018-10-16T04:03:51.399Z,67.90
2018-10-16T04:06:20.224Z,68.30
2018-10-16T04:08:49.257Z,68.50
2018-10-16T04:11:18.505Z,68.80
2018-10-16T04:13:46.894Z,68.60
2018-10-16T04:16:15.273Z,68.90
2018-10-16T04:18:43.559Z,69.20
2018-10-16T04:21:11.938Z,69.00
2018-10-16T04:23:41.576Z,69.50
2018-10-16T04:26:10.517Z,69.80
2018-10-16T04:28:38.903Z,69.80
2018-10-16T04:31:08.728Z,69.80
2018-10-16T04:33:37.096Z,69.60
2018-10-16T04:36:05.831Z,69.60
2018-10-16T04:38:34.154Z,69.50
2018-10-16T04:41:02.569Z,69.60
2018-10-16T04:43:30.847Z,69.40
2018-10-16T04:45:59.156Z,69.40
2018-10-16T04:48:27.489Z,69.30
2018-10-16T04:50:55.859Z,69.30
2018-10-16T04:53:24.231Z,69.10
2018-10-16T04:55:52.604Z,69.10
2018-10-16T04:58:21.443Z,69.10
2018-10-16T05:00:49.687Z,69.00
2018-10-16T05:03:17.940Z,69.10
2018-10-16T05:05:46.274Z,69.80
2018-10-16T05:08:14.689Z,69.90
2018-10-16T05:10:43.126Z,70.10
2018-10-16T05:13:11.495Z,69.90
2018-10-16T05:15:39.827Z,69.90
2018-10-16T05:18:08.277Z,69.90
2018-10-16T05:20:36.644Z,69.90
2018-10-16T05:23:05.399Z,69.70
2018-10-16T05:25:33.753Z,69.70
2018-10-16T05:28:02.231Z,69.70
2018-10-16T05:30:34.102Z,69.50
2018-10-16T05:33:02.686Z,69.70
2018-10-16T05:35:31.162Z,69.80
2018-10-16T05:37:59.772Z,70.80
2018-10-16T05:40:28.155Z,69.30
2018-10-16T05:42:56.705Z,70.00
2018-10-16T05:45:25.993Z,69.80
2018-10-16T05:47:54.564Z,69.90
2018-10-16T05:50:23.475Z,69.70
2018-10-16T05:52:52.110Z,70.40
2018-10-16T05:55:20.759Z,69.70
2018-10-16T05:57:49.715Z,69.80
2018-10-16T06:00:38.195Z,69.80
2018-10-16T06:03:06.882Z,69.70
2018-10-16T06:05:35.395Z,69.80
2018-10-16T06:08:04.023Z,70.20
2018-10-16T06:10:32.455Z,70.20
2018-10-16T06:13:00.891Z,70.40
2018-10-16T06:15:29.240Z,70.40
2018-10-16T06:17:58.064Z,70.60
2018-10-16T06:20:26.669Z,70.60
2018-10-16T06:22:55.101Z,70.60
2018-10-16T06:25:23.930Z,70.30
2018-10-16T06:27:52.748Z,70.60
2018-10-16T06:30:21.406Z,70.80
2018-10-16T06:32:49.782Z,70.90
2018-10-16T06:35:18.640Z,70.60
2018-10-16T06:37:47.038Z,70.80
2018-10-16T06:40:15.564Z,70.60
2018-10-16T06:42:44.138Z,70.60
2018-10-16T06:45:12.628Z,70.40
2018-10-16T06:47:41.051Z,70.20
2018-10-16T06:50:10.199Z,70.10
2018-10-16T06:52:38.847Z,70.10
2018-10-16T06:55:07.518Z,70.10
2018-10-16T06:57:35.787Z,70.00
2018-10-16T07:00:05.464Z,70.00
2018-10-16T07:02:34.268Z,69.80
2018-10-16T07:05:02.675Z,69.60
2018-10-16T07:07:30.980Z,69.60
2018-10-16T07:09:59.755Z,69.40
2018-10-16T07:12:28.173Z,69.40
2018-10-16T07:14:56.758Z,69.10
2018-10-16T07:17:25.201Z,68.90
2018-10-16T07:19:54.280Z,68.80
2018-10-16T07:22:22.825Z,68.70
2018-10-16T07:24:51.131Z,68.50
2018-10-16T07:27:19.838Z,68.30
2018-10-16T07:29:48.316Z,68.10
2018-10-16T07:32:16.790Z,67.90
2018-10-16T07:34:45.215Z,67.70
2018-10-16T07:37:13.796Z,67.40
2018-10-16T07:39:42.196Z,67.10
2018-10-16T07:42:10.721Z,66.70
2018-10-16T07:44:39.336Z,66.20
2018-10-16T07:47:07.827Z,65.80
2018-10-16T07:49:36.393Z,65.60
2018-10-16T07:52:05.000Z,65.60
2018-10-16T07:54:33.523Z,65.70
2018-10-16T07:57:03.875Z,65.30
2018-10-16T07:59:32.388Z,64.50
2018-10-16T08:02:00.860Z,64.30
2018-10-16T08:04:29.664Z,64.50
2018-10-16T08:06:58.288Z,64.30
2018-10-16T08:09:26.817Z,63.90
2018-10-16T08:11:55.201Z,63.10
2018-10-16T08:14:23.679Z,62.20
2018-10-16T08:16:52.175Z,62.20
2018-10-16T08:19:20.593Z,62.30
2018-10-16T08:21:48.926Z,62.20
2018-10-16T08:24:17.464Z,61.70
2018-10-16T08:26:46.895Z,61.50
2018-10-16T08:29:15.157Z,61.10
2018-10-16T08:31:43.650Z,60.10
2018-10-16T08:34:12.032Z,59.90
2018-10-16T08:36:40.317Z,60.20
2018-10-16T08:39:17.688Z,60.30
2018-10-16T08:44:11.469Z,59.70
2018-10-16T08:46:56.770Z,59.30
2018-10-16T08:49:41.935Z,58.60
2018-10-16T08:52:10.211Z,58.50
2018-10-16T08:54:38.569Z,58.00
2018-10-16T08:57:07.167Z,58.00
2018-10-16T08:59:35.398Z,58.10
2018-10-16T09:02:03.845Z,57.80
2018-10-16T09:04:32.711Z,57.30
2018-10-16T09:07:01.104Z,57.10
2018-10-16T09:09:29.624Z,56.40
2018-10-16T09:11:58.198Z,56.10
2018-10-16T09:14:26.827Z,55.60
2018-10-16T09:16:55.200Z,55.40
2018-10-16T09:19:23.722Z,54.70
2018-10-16T09:21:52.109Z,54.60
2018-10-16T09:24:20.560Z,54.60
2018-10-16T09:26:48.966Z,53.90
2018-10-16T09:29:17.619Z,53.30
2018-10-16T09:31:46.037Z,53.00
2018-10-16T09:34:14.746Z,52.40
2018-10-16T09:36:43.262Z,52.40
2018-10-16T09:39:11.821Z,52.30
2018-10-16T09:41:40.206Z,51.90
2018-10-16T09:44:08.791Z,51.70
2018-10-16T09:46:38.363Z,50.60
2018-10-16T09:49:13.320Z,50.70
2018-10-16T09:51:41.596Z,49.90
2018-10-16T09:54:09.933Z,49.70
2018-10-16T09:56:38.202Z,49.50
2018-10-16T09:59:06.475Z,49.30
2018-10-16T10:01:40.645Z,49.20
2018-10-16T10:04:09.324Z,49.50
2018-10-16T10:06:37.697Z,49.60
2018-10-16T10:09:09.787Z,50.00
2018-10-16T10:11:38.199Z,49.10
2018-10-16T10:14:06.851Z,48.50
2018-10-16T10:16:37.257Z,48.90
2018-10-16T10:19:05.835Z,48.00
2018-10-16T10:21:34.246Z,48.10
2018-10-16T10:24:02.857Z,47.50
2018-10-16T10:26:31.179Z,47.70
2018-10-16T10:28:59.647Z,46.90
2018-10-16T10:31:28.634Z,47.00
2018-10-16T10:33:57.302Z,46.80
2018-10-16T10:36:25.577Z,46.80
2018-10-16T10:38:53.808Z,46.60
2018-10-16T10:41:22.286Z,46.80
2018-10-16T10:43:50.609Z,46.90
2018-10-16T10:46:18.928Z,45.90
2018-10-16T10:48:47.219Z,45.40
2018-10-16T10:51:15.769Z,45.40
2018-10-16T10:53:44.350Z,44.90
2018-10-16T10:56:12.745Z,44.50
2018-10-16T10:58:41.350Z,45.00
2018-10-16T11:01:09.658Z,45.30
2018-10-16T11:03:38.565Z,44.60
2018-10-16T11:06:06.673Z,44.30
2018-10-16T11:08:35.078Z,45.10
2018-10-16T11:11:03.423Z,43.90
2018-10-16T11:13:31.708Z,43.90
2018-10-16T11:16:00.114Z,43.60
2018-10-16T11:18:28.481Z,42.70
2018-10-16T11:20:57.036Z,43.30
2018-10-16T11:23:25.295Z,43.10
2018-10-16T11:25:53.728Z,41.70
2018-10-16T11:28:22.127Z,40.60
2018-10-16T11:30:51.430Z,40.80
2018-10-16T11:33:20.760Z,41.40
2018-10-16T11:35:49.179Z,41.00
2018-10-16T11:38:18.567Z,40.20
2018-10-16T11:40:47.824Z,40.00
2018-10-16T11:43:16.499Z,40.00
2018-10-16T11:45:44.893Z,39.40
2018-10-16T11:48:13.334Z,39.60
2018-10-16T11:50:41.888Z,39.30
2018-10-16T11:53:11.107Z,38.60
2018-10-16T11:55:42.140Z,38.70
2018-10-16T11:58:14.556Z,37.90
2018-10-16T12:00:43.672Z,37.90
2018-10-16T12:03:14.235Z,37.70
2018-10-16T12:05:42.932Z,37.80
2018-10-16T12:08:11.927Z,37.50
2018-10-16T12:10:43.484Z,37.60
2018-10-16T12:13:11.968Z,36.50
2018-10-16T12:15:40.877Z,35.90
2018-10-16T12:18:18.082Z,36.00
2018-10-16T12:21:04.605Z,36.00
2018-10-16T12:23:33.171Z,36.10
2018-10-16T12:26:02.348Z,36.10
2018-10-16T12:28:30.811Z,36.10
2018-10-16T12:31:00.045Z,35.40
2018-10-16T12:33:28.876Z,34.70
2018-10-16T12:35:57.317Z,34.00
2018-10-16T12:38:26.781Z,34.10
2018-10-16T12:40:56.078Z,33.90
2018-10-16T12:43:25.768Z,33.30
2018-10-16T12:45:54.723Z,33.40
2018-10-16T12:48:23.894Z,33.40
2018-10-16T12:50:52.244Z,32.80
2018-10-16T12:53:21.471Z,31.80
2018-10-16T12:55:50.720Z,30.90
2018-10-16T12:58:20.030Z,30.70
2018-10-16T13:00:48.578Z,30.40
2018-10-16T13:03:17.306Z,30.10
2018-10-16T13:05:45.988Z,30.40
2018-10-16T13:08:14.681Z,30.70
2018-10-16T13:10:43.425Z,30.60
2018-10-16T13:13:12.503Z,28.70
2018-10-16T13:15:41.411Z,28.70
2018-10-16T13:18:09.831Z,28.80
2018-10-16T13:20:38.292Z,29.10
2018-10-16T13:23:07.248Z,29.20
2018-10-16T13:25:35.665Z,28.60
2018-10-16T13:28:04.236Z,28.10
2018-10-16T13:30:32.646Z,28.70
2018-10-16T13:33:01.427Z,29.00
2018-10-16T13:35:30.145Z,29.20
2018-10-16T13:37:59.349Z,29.50
2018-10-16T13:40:27.964Z,29.60
2018-10-16T13:42:56.648Z,29.70
2018-10-16T13:45:25.468Z,30.30
2018-10-16T13:50:38.801Z,31.20
2018-10-16T13:53:07.509Z,31.20
2018-10-16T13:55:36.131Z,31.50
2018-10-16T13:58:05.221Z,31.40
2018-10-16T14:00:33.583Z,30.60
2018-10-16T14:03:03.130Z,29.80
2018-10-16T14:05:34.870Z,30.00
2018-10-16T14:08:03.693Z,30.00
2018-10-16T14:10:32.346Z,30.40
2018-10-16T14:13:02.186Z,30.10
2018-10-16T14:15:30.991Z,30.60
2018-10-16T14:17:59.573Z,30.20
2018-10-16T14:20:28.163Z,30.50
2018-10-16T14:22:57.050Z,29.60
2018-10-16T14:25:26.030Z,29.50
2018-10-16T14:27:54.572Z,29.90
2018-10-16T14:33:13.750Z,29.70
2018-10-16T14:35:42.194Z,29.70
2018-10-16T14:38:11.058Z,29.60
2018-10-16T14:40:39.554Z,29.70
2018-10-16T14:43:07.887Z,29.90
2018-10-16T14:45:36.217Z,29.60
2018-10-16T14:48:05.598Z,30.30
2018-10-16T14:50:34.003Z,30.00
2018-10-16T14:53:02.694Z,30.40
2018-10-16T14:55:31.980Z,30.60
2018-10-16T14:58:00.502Z,31.20
2018-10-16T15:00:30.167Z,31.10
2018-10-16T15:02:58.868Z,31.30
2018-10-16T15:05:27.487Z,31.40
2018-10-16T15:07:56.365Z,31.50
2018-10-16T15:10:24.969Z,32.60
2018-10-16T15:12:53.435Z,32.10
2018-10-16T15:15:22.232Z,32.00
2018-10-16T15:17:50.921Z,33.20
2018-10-16T15:20:20.437Z,32.70
2018-10-16T15:22:48.915Z,32.20
2018-10-16T15:25:18.423Z,32.80
2018-10-16T15:27:49.330Z,32.30
2018-10-16T15:30:17.808Z,32.10
2018-10-16T15:32:47.019Z,32.50
2018-10-16T15:35:15.591Z,32.60
2018-10-16T15:37:44.493Z,32.30
2018-10-16T15:40:17.296Z,32.70
2018-10-16T15:42:47.012Z,32.20
2018-10-16T15:45:15.813Z,32.60
2018-10-16T15:52:06.723Z,32.40
2018-10-16T15:54:35.487Z,32.80
2018-10-16T15:59:44.133Z,33.70
2018-10-16T16:02:13.038Z,36.80
2018-10-16T16:04:56.349Z,36.30
2018-10-16T16:07:24.860Z,35.70
2018-10-16T16:09:53.934Z,36.80
2018-10-16T16:12:22.628Z,36.70
2018-10-16T16:14:51.388Z,37.30
2018-10-16T16:17:20.481Z,37.70
2018-10-16T16:19:49.390Z,37.80
2018-10-16T16:22:18.318Z,38.20
2018-10-16T16:24:47.010Z,38.00
2018-10-16T16:27:15.420Z,39.10
2018-10-16T16:29:44.047Z,39.50
2018-10-16T16:32:13.344Z,40.00
2018-10-16T16:34:42.145Z,40.60
2018-10-16T16:37:11.135Z,41.20
2018-10-16T16:39:39.630Z,41.40
2018-10-16T16:42:08.283Z,41.60
2018-10-16T16:44:36.903Z,41.90
2018-10-16T16:47:05.932Z,42.30
2018-10-16T16:49:34.216Z,42.60
2018-10-16T16:52:04.735Z,42.90
2018-10-16T16:54:33.215Z,43.60
2018-10-16T16:57:01.823Z,43.50
2018-10-16T16:59:33.317Z,43.40
2018-10-16T17:02:04.567Z,44.00
2018-10-16T17:04:36.412Z,44.50
2018-10-16T17:07:05.298Z,44.70
2018-10-16T17:09:33.986Z,44.90
2018-10-16T17:12:02.473Z,44.90
2018-10-16T17:14:31.364Z,45.50
2018-10-16T17:17:00.768Z,45.50
2018-10-16T17:19:29.572Z,45.80
2018-10-16T17:21:58.255Z,46.10
2018-10-16T17:24:26.915Z,46.00
2018-10-16T17:26:55.489Z,46.30
2018-10-16T17:29:25.008Z,46.50
2018-10-16T17:31:54.024Z,46.70
2018-10-16T17:34:22.469Z,47.00
2018-10-16T17:36:50.831Z,47.60
2018-10-16T17:39:19.523Z,48.00
2018-10-16T17:41:48.375Z,48.00
2018-10-16T17:44:17.168Z,48.10
2018-10-16T17:46:45.711Z,48.40
2018-10-16T17:49:16.636Z,48.50
2018-10-16T17:51:45.174Z,48.70
2018-10-16T17:54:13.757Z,49.00
2018-10-16T17:56:42.317Z,49.20
2018-10-16T17:59:11.351Z,49.40
2018-10-16T18:01:39.831Z,49.70
2018-10-16T18:04:08.435Z,50.10
2018-10-16T18:06:36.908Z,50.00
2018-10-16T18:09:07.467Z,50.20
2018-10-16T18:11:36.673Z,50.40
2018-10-16T18:14:06.023Z,51.00
2018-10-16T18:16:41.442Z,50.90
2018-10-16T18:19:11.204Z,50.90
2018-10-16T18:21:39.994Z,50.80
2018-10-16T18:24:08.577Z,50.80
2018-10-16T18:26:37.366Z,51.00
2018-10-16T18:29:06.176Z,51.30
2018-10-16T18:31:34.665Z,51.30
2018-10-16T18:34:03.135Z,51.60
2018-10-16T18:36:31.916Z,52.00
2018-10-16T18:39:00.493Z,52.10
2018-10-16T18:41:28.948Z,52.30
2018-10-16T18:43:57.375Z,52.40
2018-10-16T18:46:26.566Z,52.60
2018-10-16T18:48:55.819Z,52.80
2018-10-16T18:51:24.267Z,53.10
2018-10-16T18:53:52.813Z,53.20
2018-10-16T18:56:21.691Z,53.40
2018-10-16T18:58:50.235Z,53.70
2018-10-16T19:01:18.777Z,53.90
2018-10-16T19:03:47.253Z,54.10
2018-10-16T19:06:15.863Z,54.20
2018-10-16T19:08:44.612Z,54.40
2018-10-16T19:11:13.055Z,54.70
2018-10-16T19:13:41.912Z,54.70
2018-10-16T19:16:10.399Z,55.10
2018-10-16T19:18:39.459Z,55.20
2018-10-16T19:21:08.184Z,55.40
2018-10-16T19:23:36.779Z,55.70
2018-10-16T19:26:05.725Z,55.80
2018-10-16T19:28:34.382Z,55.90
2018-10-16T19:31:03.239Z,56.00
2018-10-16T19:33:31.749Z,56.20
2018-10-16T19:36:01.279Z,56.50
2018-10-16T19:38:30.052Z,56.60
2018-10-16T19:40:58.935Z,57.00
2018-10-16T19:43:27.471Z,57.00
2018-10-16T19:45:56.220Z,57.20
2018-10-16T19:48:24.826Z,57.40
2018-10-16T19:50:53.585Z,57.50
2018-10-16T19:53:31.262Z,57.70
2018-10-16T19:56:06.540Z,57.90
2018-10-16T19:58:35.146Z,58.00
2018-10-16T20:01:04.651Z,58.40
2018-10-16T20:03:33.279Z,58.30
2018-10-16T20:06:01.798Z,58.30
2018-10-16T20:08:30.341Z,58.30
2018-10-16T20:10:59.456Z,58.30
2018-10-16T20:13:28.055Z,58.20
2018-10-16T20:16:02.047Z,58.20
2018-10-16T20:18:30.750Z,58.30
2018-10-16T20:20:59.501Z,58.60
2018-10-16T20:23:29.439Z,58.80
2018-10-16T20:25:57.918Z,59.00
2018-10-16T20:28:26.610Z,59.20
2018-10-16T20:30:55.451Z,59.40
2018-10-16T20:33:23.983Z,59.60
2018-10-16T20:35:52.759Z,59.60
2018-10-16T20:38:21.241Z,59.70
2018-10-16T20:40:49.790Z,59.70
2018-10-16T20:43:19.253Z,60.10
2018-10-16T20:45:48.658Z,60.20
2018-10-16T20:48:17.228Z,60.20
2018-10-16T20:50:45.632Z,60.30
2018-10-16T20:53:14.488Z,60.50
2018-10-16T20:55:43.319Z,60.70
2018-10-16T20:58:12.170Z,60.90
2018-10-16T21:00:41.517Z,61.10
2018-10-16T21:03:10.592Z,61.40
2018-10-16T21:05:39.380Z,61.20
2018-10-16T21:08:08.992Z,61.40
2018-10-16T21:10:37.719Z,61.50
2018-10-16T21:13:06.956Z,61.70
2018-10-16T21:15:35.525Z,61.70
2018-10-16T21:18:04.252Z,61.80
2018-10-16T21:20:33.600Z,61.90
2018-10-16T21:23:02.402Z,62.20
2018-10-16T21:25:31.306Z,62.20
2018-10-16T21:27:59.932Z,62.40
2018-10-16T21:30:28.600Z,62.70
2018-10-16T21:32:56.981Z,62.80
2018-10-16T21:35:25.493Z,63.00
2018-10-16T21:37:53.812Z,63.20
2018-10-16T21:40:22.598Z,63.10
2018-10-16T21:42:51.192Z,63.20
2018-10-16T21:45:19.827Z,63.30
2018-10-16T21:47:48.339Z,63.30
2018-10-16T21:50:16.730Z,63.50
2018-10-16T21:52:45.445Z,63.50
2018-10-16T21:55:14.164Z,63.60
2018-10-16T21:57:42.484Z,63.70
2018-10-16T22:00:17.616Z,63.70
2018-10-16T22:02:48.050Z,63.60
2018-10-16T22:05:20.623Z,63.60
2018-10-16T22:07:51.272Z,63.40
2018-10-16T22:10:20.871Z,63.50
2018-10-16T22:12:49.428Z,63.80
2018-10-16T22:15:18.605Z,63.80
2018-10-16T22:17:47.443Z,63.50
2018-10-16T22:20:15.851Z,63.90
2018-10-16T22:22:46.734Z,64.10
2018-10-16T22:25:15.449Z,64.30
2018-10-16T22:27:43.865Z,64.30
2018-10-16T22:30:12.910Z,64.40
2018-10-16T22:32:41.369Z,64.50
2018-10-16T22:35:10.916Z,64.70
2018-10-16T22:37:39.489Z,64.80
2018-10-16T22:40:09.525Z,64.90
2018-10-16T22:42:37.989Z,64.80
2018-10-16T22:45:07.672Z,64.90
2018-10-16T22:47:36.143Z,65.00
2018-10-16T22:50:07.751Z,65.10
2018-10-16T22:52:36.108Z,65.10
2018-10-16T22:55:06.271Z,65.30
2018-10-16T22:57:34.606Z,66.00
2018-10-16T23:00:03.460Z,66.40
2018-10-16T23:02:31.777Z,66.30
2018-10-16T23:05:00.194Z,66.30
2018-10-16T23:07:28.564Z,66.30
2018-10-16T23:09:58.402Z,66.40
2018-10-16T23:12:26.864Z,66.40
2018-10-16T23:14:55.875Z,66.40
2018-10-16T23:17:24.577Z,66.40
2018-10-16T23:19:53.093Z,67.10
2018-10-16T23:22:21.352Z,66.40
2018-10-16T23:24:50.031Z,66.40
2018-10-16T23:27:18.572Z,66.40
2018-10-16T23:29:47.013Z,66.20
2018-10-16T23:32:15.401Z,66.00
2018-10-16T23:34:43.931Z,66.10
2018-10-16T23:37:12.358Z,66.90
2018-10-16T23:39:41.857Z,66.40
2018-10-16T23:42:10.208Z,66.30
2018-10-16T23:44:38.631Z,66.00
2018-10-16T23:47:07.040Z,65.50
2018-10-16T23:49:35.378Z,65.40
2018-10-16T23:52:03.713Z,66.10
2018-10-16T23:54:32.184Z,66.10
2018-10-16T23:57:00.490Z,66.00
2018-10-16T23:59:28.726Z,66.30
